TimeEST,TemperatureF,Dew PointF,Humidity,Sea Level PressureIn,VisibilityMPH,Wind Direction,Wind SpeedMPH,Gust SpeedMPH,PrecipitationIn,Events,Conditions,WindDirDegrees,DateUTC
12:53 AM,66.9,61.0,81,29.72,10.0,SSE,19.6,28.8,N/A,,Overcast,160,2012-12-26 05:53:00
1:14 AM,68.0,62.6,83,29.72,10.0,South,16.1,26.5,N/A,,Overcast,170,2012-12-26 06:14:00
1:53 AM,68.0,62.1,81,29.70,10.0,SSE,11.5,21.9,N/A,,Overcast,160,2012-12-26 06:53:00
2:53 AM,70.0,64.0,81,29.70,10.0,South,19.6,33.4,N/A,,Overcast,180,2012-12-26 07:53:00
3:53 AM,69.1,64.0,84,29.65,10.0,South,18.4,39.1,N/A,,Overcast,180,2012-12-26 08:53:00
4:10 AM,69.8,64.4,83,29.63,10.0,SSE,25.3,39.1,0.00,Rain,Light Rain,150,2012-12-26 09:10:00
4:29 AM,69.8,64.4,83,29.65,10.0,SSW,20.7,34.5,0.00,Rain-Thunderstorm,Light Thunderstorms and Rain,200,2012-12-26 09:29:00
4:36 AM,69.8,62.6,78,29.68,8.0,West,25.3,35.7,0.00,Rain-Thunderstorm,Light Thunderstorms and Rain,280,2012-12-26 09:36:00
4:53 AM,62.1,57.9,86,29.68,4.0,West,17.3,31.1,0.08,Rain-Thunderstorm,Heavy Thunderstorms and Rain,260,2012-12-26 09:53:00
5:13 AM,60.8,57.2,88,29.69,10.0,West,12.7,-,0.01,,Overcast,270,2012-12-26 10:13:00
5:53 AM,60.1,55.9,86,29.70,10.0,SW,4.6,-,0.01,,Overcast,230,2012-12-26 10:53:00
6:53 AM,60.8,55.4,82,29.70,10.0,SW,4.6,-,N/A,,Mostly Cloudy,220,2012-12-26 11:53:00
7:11 AM,60.8,55.4,82,29.71,10.0,SW,6.9,-,N/A,,Mostly Cloudy,230,2012-12-26 12:11:00
7:53 AM,61.0,55.9,83,29.72,10.0,West,13.8,-,N/A,,Overcast,270,2012-12-26 12:53:00
8:53 AM,61.0,54.0,78,29.74,10.0,West,11.5,-,N/A,,Scattered Clouds,260,2012-12-26 13:53:00
9:45 AM,62.6,51.8,68,29.77,10.0,West,16.1,-,N/A,,Mostly Cloudy,260,2012-12-26 14:45:00
9:53 AM,62.1,52.0,70,29.77,10.0,West,13.8,25.3,N/A,,Mostly Cloudy,260,2012-12-26 14:53:00
10:53 AM,61.0,46.9,60,29.81,10.0,West,24.2,39.1,N/A,,Scattered Clouds,280,2012-12-26 15:53:00
11:53 AM,60.1,42.1,51,29.82,10.0,WNW,18.4,33.4,N/A,,Scattered Clouds,290,2012-12-26 16:53:00
12:53 PM,57.0,36.0,45,29.83,10.0,NW,20.7,28.8,N/A,,Partly Cloudy,310,2012-12-26 17:53:00
1:53 PM,54.0,33.1,45,29.85,10.0,WNW,19.6,32.2,N/A,,Partly Cloudy,300,2012-12-26 18:53:00
2:53 PM,54.0,33.1,45,29.86,10.0,WNW,17.3,25.3,N/A,,Partly Cloudy,290,2012-12-26 19:53:00
3:53 PM,52.0,32.0,47,29.88,10.0,NW,15.0,23.0,N/A,,Partly Cloudy,310,2012-12-26 20:53:00
4:53 PM,50.0,32.0,50,29.93,10.0,NW,13.8,-,N/A,,Partly Cloudy,310,2012-12-26 21:53:00
5:53 PM,46.9,30.9,54,29.95,10.0,NW,11.5,-,N/A,,Clear,310,2012-12-26 22:53:00
6:53 PM,45.0,32.0,60,29.98,10.0,NW,5.8,-,N/A,,Clear,310,2012-12-26 23:53:00
7:53 PM,43.0,33.1,68,30.02,10.0,NW,6.9,-,N/A,,Clear,310,2012-12-27 00:53:00
8:53 PM,42.1,32.0,67,30.04,10.0,NW,5.8,-,N/A,,Clear,310,2012-12-27 01:53:00
9:53 PM,39.9,32.0,73,30.05,10.0,WNW,5.8,-,N/A,,Clear,290,2012-12-27 02:53:00
10:53 PM,41.0,30.9,67,30.07,10.0,WNW,9.2,-,N/A,,Mostly Cloudy,300,2012-12-27 03:53:00
11:53 PM,39.9,30.9,70,30.07,10.0,WNW,5.8,-,N/A,,Mostly Cloudy,300,2012-12-27 04:53:00